Time;durP1;ratioP1;P1;durP2;ratioP2;P2;SDS_P1;SDS_P2;PMS_P1;PMS_P2;Temp;Humidity;BMP_temperature;BMP_pressure;BME280_temperature;BME280_humidity;BME280_pressure;Samples;Min_cycle;Max_cycle;Signal;HPM_P1;HPM_P2
2023/06/11 00:02:21;;;;;;;5.43;5.00;;;;;;;20.00;83.50;97909.44;5053969;28;20201;-74
2023/06/11 00:04:49;;;;;;;4.80;4.50;;;;;;;19.95;83.70;97916.75;5053972;28;20246;-74
2023/06/11 00:07:16;;;;;;;5.33;4.83;;;;;;;19.99;82.86;97915.88;5053862;28;20224;-74
2023/06/11 00:09:42;;;;;;;5.10;4.70;;;;;;;19.94;83.52;97912.44;5053631;28;20233;-74
2023/06/11 00:12:09;;;;;;;4.83;4.53;;;;;;;19.95;82.82;97906.78;5053804;28;20209;-74
2023/06/11 00:14:35;;;;;;;5.50;4.90;;;;;;;19.90;84.15;97901.38;5053744;28;20208;-74
2023/06/11 00:17:01;;;;;;;5.80;5.30;;;;;;;19.86;84.76;97900.38;5053439;28;20312;-71
2023/06/11 00:19:30;;;;;;;5.33;4.93;;;;;;;19.82;86.44;97902.03;5053547;28;20211;-71
2023/06/11 00:21:58;;;;;;;5.27;4.80;;;;;;;19.72;86.87;97901.28;5053486;28;20253;-71
2023/06/11 00:24:25;;;;;;;5.50;5.10;;;;;;;19.72;87.87;97901.28;5053014;28;20221;-71
2023/06/11 00:26:51;;;;;;;5.30;4.90;;;;;;;19.62;87.64;97896.75;5052958;28;20708;-71
2023/06/11 00:29:18;;;;;;;5.20;4.80;;;;;;;19.57;88.64;97896.00;5052764;28;20655;-71
2023/06/11 00:31:44;;;;;;;5.67;5.27;;;;;;;19.55;89.68;97891.66;5054279;28;20205;-71
2023/06/11 00:34:11;;;;;;;4.80;4.50;;;;;;;19.45;89.99;97891.75;5053308;28;20201;-71
2023/06/11 00:36:40;;;;;;;5.87;5.37;;;;;;;19.44;91.13;97892.00;5053186;28;20324;-71
2023/06/11 00:39:06;;;;;;;5.57;5.10;;;;;;;19.37;92.26;97888.84;5052889;28;20209;-71
2023/06/11 00:41:33;;;;;;;5.57;5.17;;;;;;;19.27;92.86;97887.00;5052958;28;20228;-71
2023/06/11 00:44:00;;;;;;;5.57;5.17;;;;;;;19.25;93.60;97889.16;5053210;28;20205;-71
2023/06/11 00:46:26;;;;;;;5.67;5.20;;;;;;;19.25;93.84;97889.16;5053047;28;20225;-71
2023/06/11 00:48:53;;;;;;;6.03;5.53;;;;;;;19.31;92.50;97898.84;5055595;28;20742;-71
2023/06/11 00:51:22;;;;;;;5.50;5.10;;;;;;;19.35;92.17;97897.19;5057093;28;20634;-73
2023/06/11 00:53:51;;;;;;;6.47;5.70;;;;;;;19.22;94.64;97902.34;5057054;28;20680;-73
2023/06/11 00:56:17;;;;;;;5.60;5.10;;;;;;;19.21;95.06;97895.34;5057233;28;20236;-73
2023/06/11 00:58:45;;;;;;;6.10;5.60;;;;;;;19.22;94.86;97907.75;5057293;28;20205;-73
2023/06/11 01:01:17;;;;;;;5.93;5.53;;;;;;;19.16;95.99;97914.25;5057368;28;20205;-73
2023/06/11 01:03:44;;;;;;;6.43;5.83;;;;;;;19.19;95.66;97911.78;5057349;28;20215;-73
2023/06/11 01:06:17;;;;;;;6.30;5.80;;;;;;;19.07;97.17;97907.81;5057011;28;20252;-73
2023/06/11 01:08:52;;;;;;;5.97;5.53;;;;;;;19.08;100.00;97906.72;5057171;28;20304;-73
2023/06/11 01:11:21;;;;;;;5.60;5.20;;;;;;;18.98;100.00;97915.69;5057159;28;20216;-73
2023/06/11 01:13:48;;;;;;;6.07;5.67;;;;;;;18.99;100.00;97903.81;5056874;28;20722;-73
2023/06/11 01:16:37;;;;;;;6.67;6.07;;;;;;;18.94;100.00;97905.72;5057024;28;20229;-73
2023/06/11 01:19:12;;;;;;;5.93;5.47;;;;;;;18.95;100.00;97905.44;5057040;28;20197;-73
2023/06/11 01:21:45;;;;;;;6.67;6.07;;;;;;;19.00;100.00;97907.31;5057029;28;20264;-73
2023/06/11 01:24:24;;;;;;;6.67;6.17;;;;;;;18.96;100.00;97904.34;5055494;28;20263;-73
2023/06/11 01:27:09;;;;;;;6.03;5.63;;;;;;;18.83;100.00;97915.72;5056472;28;20596;-73
2023/06/11 01:29:37;;;;;;;6.17;5.67;;;;;;;18.89;100.00;97908.44;5057230;28;20205;-73
2023/06/11 01:32:05;;;;;;;5.87;5.40;;;;;;;18.91;100.00;97917.84;5056732;28;20201;-73
2023/06/11 01:34:32;;;;;;;6.40;5.80;;;;;;;18.82;100.00;97911.41;5056701;28;20209;-73
2023/06/11 01:36:59;;;;;;;6.33;5.77;;;;;;;18.81;100.00;97907.13;5056327;28;20225;-73
2023/06/11 01:39:26;;;;;;;6.00;5.50;;;;;;;18.78;100.00;97909.56;5056370;28;20202;-73
2023/06/11 01:41:54;;;;;;;6.37;5.87;;;;;;;18.75;100.00;97910.91;5056427;28;20292;-73
2023/06/11 01:44:22;;;;;;;6.40;5.90;;;;;;;18.79;100.00;97911.16;5056549;28;20259;-73
2023/06/11 01:46:48;;;;;;;6.10;5.60;;;;;;;18.76;100.00;97914.41;5056447;28;20355;-73
2023/06/11 01:49:14;;;;;;;6.20;4.83;;;;;;;18.87;100.00;97914.09;5056366;28;20221;-73
2023/06/11 01:51:41;;;;;;;5.97;5.47;;;;;;;18.83;100.00;97913.03;5056082;28;20235;-73
2023/06/11 01:54:07;;;;;;;5.77;5.37;;;;;;;18.77;100.00;97905.25;5056353;28;20685;-73
2023/06/11 01:56:33;;;;;;;6.10;5.60;;;;;;;18.69;100.00;97908.50;5055930;28;20761;-74
2023/06/11 01:59:00;;;;;;;6.60;6.00;;;;;;;18.64;100.00;97903.94;5055716;28;20284;-74
2023/06/11 02:01:28;;;;;;;6.80;6.20;;;;;;;18.62;100.00;97906.09;5055566;28;20672;-74
2023/06/11 02:03:55;;;;;;;5.83;5.43;;;;;;;18.56;100.00;97912.59;5055698;28;20746;-74
2023/06/11 02:06:21;;;;;;;6.43;5.83;;;;;;;18.53;100.00;97902.34;5055654;28;20726;-74
2023/06/11 02:08:48;;;;;;;6.20;5.60;;;;;;;18.50;100.00;97910.97;5055720;28;20704;-74
2023/06/11 02:11:14;;;;;;;6.57;5.87;;;;;;;18.46;100.00;97904.50;5055731;28;20691;-74
2023/06/11 02:13:40;;;;;;;5.90;5.40;;;;;;;18.42;100.00;97902.66;5055622;28;20672;-74
2023/06/11 02:16:07;;;;;;;6.40;5.90;;;;;;;18.39;100.00;97904.00;5055753;28;20229;-74
2023/06/11 02:18:33;;;;;;;6.37;5.73;;;;;;;18.41;100.00;97907.22;5055855;28;20207;-74
2023/06/11 02:20:59;;;;;;;6.20;5.80;;;;;;;18.41;100.00;97907.22;5056353;28;20216;-74
2023/06/11 02:23:26;;;;;;;6.20;5.77;;;;;;;18.34;100.00;97905.88;5055347;28;20304;-74
2023/06/11 02:25:52;;;;;;;5.83;5.33;;;;;;;18.28;100.00;97910.44;5055682;28;20225;-74
2023/06/11 02:28:18;;;;;;;6.10;5.60;;;;;;;18.29;100.00;97901.31;5055683;28;20201;-74
2023/06/11 02:30:45;;;;;;;6.47;5.87;;;;;;;18.29;100.00;97901.31;5055582;28;20201;-74
2023/06/11 02:33:11;;;;;;;6.27;5.77;;;;;;;18.27;100.00;97908.81;5055561;28;20205;-74
2023/06/11 02:35:37;;;;;;;6.20;5.70;;;;;;;18.25;100.00;97912.88;5055495;28;20229;-74
2023/06/11 02:38:04;;;;;;;6.07;5.60;;;;;;;18.18;100.00;97915.84;5055191;28;20681;-74
2023/06/11 02:40:30;;;;;;;6.10;5.60;;;;;;;18.16;100.00;97920.69;5055483;28;20232;-74
2023/06/11 02:42:56;;;;;;;6.00;5.50;;;;;;;18.15;100.00;97919.06;5055436;28;20237;-74
2023/06/11 02:45:23;;;;;;;5.63;5.20;;;;;;;18.17;100.00;97916.91;5055321;28;20205;-74
2023/06/11 02:47:49;;;;;;;5.70;5.20;;;;;;;18.05;100.00;97919.06;5055376;28;20212;-74
2023/06/11 02:50:15;;;;;;;6.23;5.80;;;;;;;18.17;100.00;97921.47;5055198;28;20240;-74
2023/06/11 02:52:42;;;;;;;5.97;5.47;;;;;;;18.08;100.00;97917.72;5055255;28;20202;-74
2023/06/11 02:55:08;;;;;;;5.50;5.10;;;;;;;18.01;100.00;97923.38;5055193;28;20206;-74
2023/06/11 02:57:35;;;;;;;5.87;5.47;;;;;;;18.03;100.00;97929.31;5055047;28;20233;-74
2023/06/11 03:00:01;;;;;;;6.23;5.63;;;;;;;18.08;100.00;97934.69;5054826;28;20212;-74
2023/06/11 03:02:27;;;;;;;5.90;5.40;;;;;;;18.21;100.00;97933.31;5055032;28;20212;-74
2023/06/11 03:04:54;;;;;;;5.43;5.03;;;;;;;18.19;100.00;97940.88;5054932;28;20219;-74
2023/06/11 03:07:20;;;;;;;6.00;5.40;;;;;;;18.15;100.00;97940.56;5054701;28;20232;-74
2023/06/11 03:09:46;;;;;;;5.70;5.23;;;;;;;18.13;100.00;97937.38;5054717;28;20229;-74
2023/06/11 03:12:13;;;;;;;5.67;5.17;;;;;;;18.15;100.00;97940.56;5054718;28;20213;-73
2023/06/11 03:14:39;;;;;;;5.70;5.30;;;;;;;18.07;100.00;97941.16;5054789;28;20213;-73
2023/06/11 03:17:05;;;;;;;7.17;4.87;;;;;;;18.07;100.00;97953.78;5054268;28;20231;-73
2023/06/11 03:19:32;;;;;;;4.97;4.63;;;;;;;17.98;100.00;97955.38;5054369;28;20213;-73
2023/06/11 03:21:58;;;;;;;5.97;5.17;;;;;;;18.01;100.00;97949.47;5054512;28;20216;-73
2023/06/11 03:24:24;;;;;;;5.40;4.90;;;;;;;17.95;100.00;97956.72;5053980;28;20677;-73
2023/06/11 03:26:51;;;;;;;6.13;5.40;;;;;;;18.07;100.00;97948.41;5054279;28;20282;-73
2023/06/11 03:29:17;;;;;;;5.40;4.90;;;;;;;18.02;100.00;97949.22;5054157;28;20231;-73
2023/06/11 03:31:43;;;;;;;5.37;4.97;;;;;;;18.02;100.00;97943.84;5054393;28;20209;-73
2023/06/11 03:34:10;;;;;;;5.50;5.10;;;;;;;18.01;100.00;97952.16;5054310;28;20262;-73
2023/06/11 03:36:37;;;;;;;5.53;5.03;;;;;;;18.04;100.00;97955.13;5054246;28;20275;-73
2023/06/11 03:39:03;;;;;;;5.63;5.23;;;;;;;17.99;100.00;97947.06;5053924;28;20251;-73
2023/06/11 03:41:30;;;;;;;5.67;5.13;;;;;;;17.98;100.00;97960.75;5054223;28;20205;-73
2023/06/11 03:43:56;;;;;;;5.70;5.30;;;;;;;17.87;100.00;97951.09;5054199;28;20205;-73
2023/06/11 03:46:23;;;;;;;5.50;5.10;;;;;;;17.82;100.00;97959.94;5054120;28;20221;-73
2023/06/11 03:48:49;;;;;;;5.83;5.27;;;;;;;17.83;100.00;97952.69;5054154;28;20225;-73
2023/06/11 03:51:16;;;;;;;5.73;5.30;;;;;;;17.81;100.00;97960.19;5054165;28;20208;-73
2023/06/11 03:53:42;;;;;;;7.17;5.43;;;;;;;17.78;100.00;97961.53;5054236;28;20205;-73
2023/06/11 03:56:09;;;;;;;5.37;4.90;;;;;;;17.77;100.00;97959.13;5053997;28;20231;-73
2023/06/11 03:58:35;;;;;;;5.80;5.30;;;;;;;17.78;100.00;97960.75;5054095;28;20212;-73
2023/06/11 04:01:02;;;;;;;5.97;5.47;;;;;;;17.82;100.00;97962.63;5054059;28;20209;-73
2023/06/11 04:03:28;;;;;;;5.53;5.10;;;;;;;17.79;100.00;97965.06;5053661;28;20212;-73
2023/06/11 04:05:54;;;;;;;5.77;5.27;;;;;;;17.80;100.00;97970.16;5054100;28;20240;-73
2023/06/11 04:08:21;;;;;;;5.40;5.00;;;;;;;17.87;100.00;97976.09;5053810;28;20283;-73
2023/06/11 04:10:47;;;;;;;5.57;5.07;;;;;;;17.89;100.00;97967.75;5053697;28;20588;-73
2023/06/11 04:13:13;;;;;;;5.97;5.40;;;;;;;17.92;100.00;97977.97;5053429;28;20684;-73
2023/06/11 04:15:40;;;;;;;5.53;5.13;;;;;;;18.03;100.00;97976.91;5053325;28;20588;-73
2023/06/11 04:18:06;;;;;;;6.63;5.77;;;;;;;18.14;100.00;97979.34;5053763;28;20228;-73
2023/06/11 04:20:32;;;;;;;6.13;5.63;;;;;;;18.18;100.00;97979.63;5053669;28;20202;-73
2023/06/11 04:22:59;;;;;;;6.03;5.53;;;;;;;18.20;100.00;97980.97;5052881;28;20217;-73
2023/06/11 04:25:25;;;;;;;6.67;5.63;;;;;;;18.43;100.00;97987.72;5054126;28;20201;-73
2023/06/11 04:27:52;;;;;;;5.67;5.27;;;;;;;18.33;100.00;97977.75;5053695;28;20209;-73
2023/06/11 04:30:20;;;;;;;5.73;5.27;;;;;;;18.32;100.00;97981.50;5053487;28;20261;-73
2023/06/11 04:32:47;;;;;;;5.70;5.30;;;;;;;18.44;100.00;97981.25;5053557;28;20279;-73
2023/06/11 04:35:14;;;;;;;6.53;5.93;;;;;;;18.47;100.00;97981.53;5053397;28;20205;-73
2023/06/11 04:37:40;;;;;;;6.20;5.70;;;;;;;18.53;100.00;97991.22;5053079;28;20205;-73
2023/06/11 04:40:10;;;;;;;5.53;5.03;;;;;;;18.54;100.00;97987.44;5053334;28;20232;-73
2023/06/11 04:42:40;;;;;;;5.60;5.20;;;;;;;18.56;100.00;97982.59;5052997;28;20205;-73
2023/06/11 04:45:10;;;;;;;5.60;5.20;;;;;;;18.62;100.00;97983.38;5053370;28;20213;-73
2023/06/11 04:47:37;;;;;;;5.73;5.23;;;;;;;18.63;100.00;97980.41;5053060;28;20729;-73
2023/06/11 04:50:06;;;;;;;6.07;5.57;;;;;;;18.65;100.00;97983.66;5053349;28;20221;-73
2023/06/11 04:52:34;;;;;;;5.30;4.80;;;;;;;18.73;100.00;97980.38;5052204;28;20297;-73
2023/06/11 04:55:01;;;;;;;5.40;5.00;;;;;;;18.78;100.00;97983.06;5053354;28;20231;-73
2023/06/11 04:57:28;;;;;;;6.23;5.30;;;;;;;18.79;100.00;97986.59;5053262;28;20591;-73
2023/06/11 04:59:55;;;;;;;5.50;5.10;;;;;;;18.92;100.00;97983.31;5053249;28;20215;-73
2023/06/11 05:02:22;;;;;;;5.87;5.37;;;;;;;19.00;99.50;97980.88;5053306;28;20216;-73
2023/06/11 05:04:53;;;;;;;5.70;5.20;;;;;;;19.26;100.00;97978.91;5053214;28;20205;-73
2023/06/11 05:07:20;;;;;;;5.33;4.93;;;;;;;19.51;97.40;97987.69;5053148;28;20229;-73
2023/06/11 05:09:46;;;;;;;5.40;4.87;;;;;;;19.77;95.67;97979.47;5053057;28;20221;-73
2023/06/11 05:12:12;;;;;;;5.70;5.10;;;;;;;20.09;91.35;97996.84;5053184;28;20576;-73
2023/06/11 05:14:39;;;;;;;5.47;5.00;;;;;;;20.36;90.71;97993.66;5053502;28;20212;-73
2023/06/11 05:17:05;;;;;;;4.97;4.57;;;;;;;20.54;87.84;97995.66;5053042;28;20225;-73
2023/06/11 05:19:32;;;;;;;5.20;4.70;;;;;;;20.92;85.79;97987.47;5052757;28;20209;-73
2023/06/11 05:21:58;;;;;;;4.90;4.47;;;;;;;21.37;83.14;97994.25;5052804;28;20212;-73
2023/06/11 05:24:28;;;;;;;5.07;4.67;;;;;;;21.58;81.58;97991.03;5052923;28;20221;-73
2023/06/11 05:26:56;;;;;;;5.20;4.30;;;;;;;21.38;79.46;97996.66;5052998;28;20316;-73
2023/06/11 05:29:24;;;;;;;5.07;4.60;;;;;;;21.48;79.13;98001.94;5052927;28;20225;-74
2023/06/11 05:31:50;;;;;;;6.13;4.27;;;;;;;21.28;80.68;97991.38;5052989;28;20209;-74
2023/06/11 05:34:16;;;;;;;5.00;4.60;;;;;;;21.16;81.97;97995.59;5053164;28;20205;-74
2023/06/11 05:36:45;;;;;;;5.32;4.90;;;;;;;20.89;83.80;98000.72;5056343;28;20708;-73
2023/06/11 05:39:13;;;;;;;5.03;4.67;;;;;;;20.55;86.76;97999.97;5056706;28;20209;-73
2023/06/11 05:41:40;;;;;;;4.78;4.38;;;;;;;20.51;87.70;98002.44;5056525;28;20205;-73
2023/06/11 05:44:06;;;;;;;4.87;4.47;;;;;;;20.57;86.30;98009.38;5056144;28;20680;-73
2023/06/11 05:46:33;;;;;;;5.23;4.83;;;;;;;20.42;86.97;98000.59;5056414;28;20225;-73
2023/06/11 05:48:59;;;;;;;4.90;4.37;;;;;;;20.47;86.14;98009.47;5056385;28;20212;-73
2023/06/11 05:51:26;;;;;;;4.93;4.50;;;;;;;20.53;87.37;98012.97;5056403;28;20235;-73
2023/06/11 05:53:52;;;;;;;4.70;4.30;;;;;;;20.54;87.48;98004.56;5055959;28;20566;-74
2023/06/11 05:56:19;;;;;;;5.40;5.00;;;;;;;20.65;87.19;98010.66;5055995;28;20229;-73
2023/06/11 05:58:45;;;;;;;5.10;4.60;;;;;;;20.72;86.77;98009.28;5056281;28;20217;-73
2023/06/11 06:01:12;;;;;;;5.07;4.67;;;;;;;20.72;85.59;98016.56;5056219;28;20197;-73
2023/06/11 06:03:39;;;;;;;5.23;4.83;;;;;;;20.85;86.14;98013.97;5055802;28;20245;-73
2023/06/11 06:06:08;;;;;;;5.20;4.80;;;;;;;20.61;85.43;98023.16;5056016;28;20265;-73
2023/06/11 06:08:35;;;;;;;5.20;4.77;;;;;;;20.76;85.72;98028.41;5055921;28;20209;-73
2023/06/11 06:11:02;;;;;;;5.50;5.00;;;;;;;20.79;86.10;98023.25;5055704;28;20320;-73
2023/06/11 06:13:28;;;;;;;5.27;4.87;;;;;;;20.74;85.04;98022.47;5055619;28;20205;-73
2023/06/11 06:15:55;;;;;;;4.97;4.57;;;;;;;20.67;85.33;98028.19;5055992;28;20231;-73
2023/06/11 06:18:21;;;;;;;6.00;4.70;;;;;;;20.73;86.85;98020.88;5055816;28;20201;-73
2023/06/11 06:20:48;;;;;;;4.87;4.33;;;;;;;21.03;84.54;98026.00;5055848;28;20216;-73
2023/06/11 06:23:14;;;;;;;5.10;4.70;;;;;;;21.06;84.88;98022.72;5055602;28;20244;-73
2023/06/11 06:25:41;;;;;;;5.20;4.80;;;;;;;21.10;84.35;98034.56;5055755;28;20228;-73
2023/06/11 06:28:08;;;;;;;5.23;4.83;;;;;;;21.16;83.34;98031.53;5055685;28;20213;-73
2023/06/11 06:30:34;;;;;;;4.90;4.47;;;;;;;21.11;81.64;98036.22;5055641;28;20228;-73
2023/06/11 06:33:01;;;;;;;4.90;4.57;;;;;;;21.07;81.89;98043.28;5055309;28;20680;-73
2023/06/11 06:35:30;;;;;;;5.10;4.60;;;;;;;21.10;82.39;98043.50;5055439;28;20209;-73
2023/06/11 06:37:56;;;;;;;5.37;4.87;;;;;;;21.22;81.24;98043.94;5055418;28;20209;-73
2023/06/11 06:40:24;;;;;;;4.80;4.40;;;;;;;21.44;80.06;98036.06;5055398;28;20205;-73
2023/06/11 06:42:50;;;;;;;5.90;4.60;;;;;;;21.57;79.54;98032.66;5055470;28;20575;-73
2023/06/11 06:45:17;;;;;;;5.00;4.50;;;;;;;21.43;78.18;98036.38;5054787;28;20205;-73
2023/06/11 06:47:43;;;;;;;5.17;4.67;;;;;;;21.61;78.72;98033.72;5055335;28;20217;-73
2023/06/11 06:50:10;;;;;;;4.73;4.43;;;;;;;21.73;80.67;98038.72;5055315;28;20221;-73
2023/06/11 06:52:36;;;;;;;5.13;4.67;;;;;;;21.65;77.78;98032.03;5055194;28;20208;-73
2023/06/11 06:55:03;;;;;;;4.60;4.30;;;;;;;21.77;75.72;98042.47;5054920;28;20206;-73
2023/06/11 06:57:30;;;;;;;5.27;4.57;;;;;;;21.76;77.89;98038.97;5054740;28;20225;-73
2023/06/11 06:59:56;;;;;;;5.13;4.67;;;;;;;21.77;76.51;98039.75;5055089;28;20553;-73
2023/06/11 07:02:22;;;;;;;5.20;4.80;;;;;;;21.95;79.01;98038.97;5054907;28;20209;-73
2023/06/11 07:04:49;;;;;;;4.70;4.30;;;;;;;21.96;76.62;98037.88;5054706;28;20572;-73
2023/06/11 07:07:15;;;;;;;4.93;4.53;;;;;;;22.06;73.17;98043.16;5054673;28;20316;-73
2023/06/11 07:09:41;;;;;;;5.07;4.60;;;;;;;22.05;73.98;98034.22;5054719;28;20225;-73
2023/06/11 07:12:08;;;;;;;4.72;4.32;;;;;;;22.21;73.05;98032.09;5054875;28;20574;-73
2023/06/11 07:14:35;;;;;;;5.03;4.65;;;;;;;22.25;75.88;98028.50;5054594;28;20687;-73
2023/06/11 07:17:01;;;;;;;5.10;4.68;;;;;;;22.12;74.38;98033.88;5054432;28;20747;-73
2023/06/11 07:19:27;;;;;;;5.03;4.47;;;;;;;22.07;73.08;98037.44;5054633;28;20213;-73
2023/06/11 07:21:54;;;;;;;5.63;4.70;;;;;;;22.31;73.85;98026.53;5054577;28;20201;-73
2023/06/11 07:24:20;;;;;;;5.22;4.72;;;;;;;22.52;72.74;98030.56;5054260;28;20209;-73
2023/06/11 07:26:46;;;;;;;5.65;5.18;;;;;;;22.60;72.20;98025.25;5054487;28;20229;-73
2023/06/11 07:29:13;;;;;;;5.28;4.78;;;;;;;22.72;71.05;98033.75;5054690;28;20209;-73
2023/06/11 07:31:39;;;;;;;5.40;5.00;;;;;;;22.87;70.94;98032.66;5054483;28;20229;-73
2023/06/11 07:34:06;;;;;;;4.95;4.55;;;;;;;22.71;68.44;98032.09;5054403;28;20205;-73
2023/06/11 07:36:32;;;;;;;4.68;4.30;;;;;;;22.61;68.45;98032.28;5054104;28;20773;-73
2023/06/11 07:38:59;;;;;;;7.00;4.65;;;;;;;22.75;68.71;98035.06;5053932;28;20286;-73
2023/06/11 07:41:25;;;;;;;5.05;4.65;;;;;;;22.80;67.66;98030.31;5054207;28;20205;-73
2023/06/11 07:43:51;;;;;;;5.40;5.00;;;;;;;22.65;66.92;98030.59;5053907;28;20641;-73
2023/06/11 07:46:18;;;;;;;4.43;4.13;;;;;;;22.72;66.70;98033.75;5053678;28;20614;-72
2023/06/11 07:48:44;;;;;;;4.72;4.25;;;;;;;23.04;65.87;98031.00;5053813;28;20664;-72
2023/06/11 07:51:14;;;;;;;4.82;4.43;;;;;;;23.07;67.01;98032.31;5053967;28;20217;-72
2023/06/11 07:53:41;;;;;;;4.47;4.07;;;;;;;23.15;64.54;98034.34;5054020;28;20201;-72
2023/06/11 07:56:08;;;;;;;4.53;4.22;;;;;;;23.17;64.72;98035.63;5054664;28;20575;-73
2023/06/11 07:58:34;;;;;;;5.47;4.60;;;;;;;23.43;64.99;98038.69;5053164;28;20228;-73
2023/06/11 08:01:01;;;;;;;4.57;4.18;;;;;;;23.41;64.74;98040.88;5053810;28;20284;-72
2023/06/11 08:03:28;;;;;;;4.72;4.32;;;;;;;23.41;63.40;98041.69;5053798;28;20211;-72
2023/06/11 08:05:54;;;;;;;4.28;3.97;;;;;;;23.50;61.10;98041.78;5053676;28;20221;-72
2023/06/11 08:08:21;;;;;;;4.03;3.72;;;;;;;23.67;59.69;98033.84;5053690;28;20207;-73
2023/06/11 08:10:50;;;;;;;4.82;3.90;;;;;;;23.66;59.97;98037.69;5053183;28;20319;-73
2023/06/11 08:13:17;;;;;;;4.13;3.83;;;;;;;23.72;58.59;98031.84;5053716;28;20205;-72
2023/06/11 08:15:44;;;;;;;4.05;3.60;;;;;;;23.77;58.38;98029.00;5053720;28;20302;-73
2023/06/11 08:18:10;;;;;;;4.18;3.88;;;;;;;23.86;57.19;98035.34;5053635;28;20208;-73
2023/06/11 08:20:37;;;;;;;4.07;3.85;;;;;;;23.84;57.67;98032.09;5053240;28;20209;-72
2023/06/11 08:23:03;;;;;;;4.38;3.97;;;;;;;24.06;54.60;98026.75;5053002;28;20297;-72
2023/06/11 08:25:29;;;;;;;4.63;3.83;;;;;;;24.04;56.28;98025.47;5053217;28;20212;-72
2023/06/11 08:27:56;;;;;;;3.55;3.35;;;;;;;24.11;56.98;98017.72;5053247;28;20202;-73
2023/06/11 08:30:22;;;;;;;3.97;3.67;;;;;;;24.22;57.02;98013.63;5053495;28;20225;-73
2023/06/11 08:32:48;;;;;;;5.05;4.43;;;;;;;24.35;56.98;98018.22;5053310;28;20572;-73
2023/06/11 08:35:15;;;;;;;4.68;4.38;;;;;;;24.30;57.02;98026.50;5052888;28;20625;-73
2023/06/11 08:37:41;;;;;;;4.55;4.25;;;;;;;24.28;58.54;98020.56;5053252;28;20204;-73
2023/06/11 08:40:12;;;;;;;6.72;4.07;;;;;;;24.06;57.23;98031.41;5053259;28;20207;-72
2023/06/11 08:42:38;;;;;;;5.50;4.47;;;;;;;24.20;58.57;98015.88;5053234;28;20197;-72
2023/06/11 08:45:06;;;;;;;4.70;4.30;;;;;;;24.34;57.97;98020.13;5053315;28;20208;-72
2023/06/11 08:47:34;;;;;;;6.05;4.50;;;;;;;24.39;60.08;98020.03;5053086;28;20232;-72
2023/06/11 08:50:02;;;;;;;4.50;4.15;;;;;;;24.32;58.89;98018.81;5052821;28;20209;-73
2023/06/11 08:52:32;;;;;;;5.32;4.30;;;;;;;24.32;57.15;98018.81;5053282;28;20251;-73
2023/06/11 08:54:59;;;;;;;4.57;4.28;;;;;;;24.40;57.46;98026.25;5053211;28;20209;-73
2023/06/11 08:57:25;;;;;;;4.55;4.22;;;;;;;24.63;55.41;98020.53;5053060;28;20312;-73
2023/06/11 08:59:52;;;;;;;4.50;4.20;;;;;;;24.58;55.01;98019.81;5053012;28;20240;-73
2023/06/11 09:02:18;;;;;;;4.65;4.35;;;;;;;24.17;55.49;98027.34;5053349;28;20204;-73
2023/06/11 09:04:45;;;;;;;4.32;3.90;;;;;;;24.12;55.94;98020.13;5052795;28;20206;-73
2023/06/11 09:07:11;;;;;;;4.32;3.92;;;;;;;24.23;55.46;98028.81;5052562;28;20235;-73
2023/06/11 09:09:38;;;;;;;4.57;4.28;;;;;;;24.57;54.59;98018.22;5054925;28;20621;-73
2023/06/11 09:12:08;;;;;;;3.88;3.58;;;;;;;24.75;50.63;98017.25;5056639;28;20584;-73
2023/06/11 09:14:34;;;;;;;4.25;3.85;;;;;;;24.70;53.09;98010.00;5056917;28;20212;-73
2023/06/11 09:17:00;;;;;;;4.22;3.92;;;;;;;24.75;50.81;98014.53;5056923;28;20225;-73
2023/06/11 09:19:27;;;;;;;4.28;3.97;;;;;;;24.76;50.68;98010.69;5056848;28;20232;-73
2023/06/11 09:21:57;;;;;;;4.30;4.00;;;;;;;24.98;51.30;98011.47;5057198;28;20551;-72
2023/06/11 09:24:25;;;;;;;4.15;3.75;;;;;;;24.95;50.17;98011.28;5056357;28;20219;-72
2023/06/11 09:26:56;;;;;;;4.05;3.80;;;;;;;25.07;51.95;98006.88;5056611;28;20287;-72
2023/06/11 09:29:28;;;;;;;3.80;3.50;;;;;;;25.33;49.73;98002.34;5055976;28;20695;-72
2023/06/11 09:32:08;;;;;;;5.55;3.78;;;;;;;25.67;48.80;98005.19;5056570;28;20229;-72
2023/06/11 09:34:36;;;;;;;4.43;4.07;;;;;;;25.92;45.76;97998.19;5056269;28;20193;-72
2023/06/11 09:37:03;;;;;;;5.72;3.83;;;;;;;26.08;45.04;98002.06;5056496;28;20236;-73
2023/06/11 09:39:30;;;;;;;3.90;3.60;;;;;;;25.82;40.78;98006.69;5056124;28;20618;-73
2023/06/11 09:41:57;;;;;;;3.97;3.58;;;;;;;25.99;41.48;98010.25;5056092;28;20213;-72
2023/06/11 09:44:26;;;;;;;5.25;3.60;;;;;;;25.94;41.05;97996.78;5056159;28;20205;-72
2023/06/11 09:46:53;;;;;;;4.40;3.75;;;;;;;26.02;41.53;98006.06;5056291;28;20225;-72
2023/06/11 09:49:23;;;;;;;4.85;3.75;;;;;;;25.88;39.92;98019.78;5056435;28;20212;-72
2023/06/11 09:51:51;;;;;;;4.25;3.85;;;;;;;25.99;39.86;98003.97;5055982;28;20603;-72
2023/06/11 09:54:19;;;;;;;4.13;3.83;;;;;;;26.08;40.55;98011.06;5056287;28;20205;-72
2023/06/11 09:56:47;;;;;;;4.25;3.85;;;;;;;26.34;39.97;98003.69;5055877;28;20704;-72
2023/06/11 09:59:17;;;;;;;4.15;3.72;;;;;;;26.49;39.59;98000.47;5056152;28;20205;-74
2023/06/11 10:01:48;;;;;;;4.53;3.58;;;;;;;26.31;39.29;97998.06;5056434;28;20206;-72
2023/06/11 10:04:14;;;;;;;4.22;3.83;;;;;;;26.41;37.66;97997.75;5056108;28;20201;-72
2023/06/11 10:06:45;;;;;;;6.38;3.92;;;;;;;26.21;37.20;98006.56;5055417;28;20712;-72
2023/06/11 10:09:14;;;;;;;4.38;4.05;;;;;;;26.33;37.67;97999.34;5055703;28;20667;-72
2023/06/11 10:11:41;;;;;;;6.57;3.90;;;;;;;26.19;36.48;98008.81;5055526;28;20274;-72
2023/06/11 10:14:16;;;;;;;4.03;3.60;;;;;;;26.28;35.41;98007.69;5055667;28;20676;-73
2023/06/11 10:16:49;;;;;;;4.97;3.92;;;;;;;26.26;36.25;98003.66;5055384;28;20225;-72
2023/06/11 10:19:16;;;;;;;4.53;3.70;;;;;;;26.30;38.04;98000.00;5055762;28;20216;-72
2023/06/11 10:21:49;;;;;;;4.15;3.67;;;;;;;26.33;35.25;98001.28;5054878;28;20208;-72
2023/06/11 10:24:26;;;;;;;4.50;3.60;;;;;;;26.53;34.00;98003.34;5055159;28;20691;-72
2023/06/11 10:27:04;;;;;;;4.10;3.50;;;;;;;26.76;35.59;98002.03;5055254;28;20704;-72
2023/06/11 10:29:40;;;;;;;4.25;3.65;;;;;;;26.87;35.19;98006.03;5055449;28;20243;-72
2023/06/11 10:32:19;;;;;;;4.88;3.80;;;;;;;26.86;35.31;98018.06;5055541;28;20219;-73
2023/06/11 10:34:49;;;;;;;5.15;4.15;;;;;;;27.06;34.20;98003.72;5055262;28;20258;-73
2023/06/11 10:37:15;;;;;;;4.20;3.85;;;;;;;27.05;33.63;97993.94;5055342;28;20235;-73
2023/06/11 10:39:51;;;;;;;6.85;3.83;;;;;;;27.15;35.70;98001.78;5055312;28;20201;-73
2023/06/11 10:42:36;;;;;;;4.88;3.83;;;;;;;27.06;33.10;98001.00;5055284;28;20295;-72
2023/06/11 10:45:10;;;;;;;4.05;3.65;;;;;;;27.08;34.34;97998.75;5055134;28;20189;-72
2023/06/11 10:47:49;;;;;;;4.13;3.80;;;;;;;27.06;33.86;97998.28;5054937;28;20229;-72
2023/06/11 10:50:18;;;;;;;4.80;4.28;;;;;;;27.13;36.29;98006.75;5055043;28;20209;-72
2023/06/11 10:52:52;;;;;;;5.95;3.83;;;;;;;27.23;36.29;97995.53;5055576;28;20205;-72
2023/06/11 10:55:21;;;;;;;4.20;3.70;;;;;;;27.26;36.16;98005.75;5054720;28;20189;-73
2023/06/11 10:57:54;;;;;;;5.97;4.22;;;;;;;27.34;35.11;98004.94;5054778;28;20208;-73
2023/06/11 11:00:21;;;;;;;4.30;3.90;;;;;;;27.01;35.58;98004.69;5054637;28;20664;-73
2023/06/11 11:02:48;;;;;;;5.13;3.67;;;;;;;26.92;35.56;97992.22;5054894;28;20231;-73
2023/06/11 11:05:15;;;;;;;4.53;4.15;;;;;;;26.92;35.91;97998.47;5054738;28;20206;-73
2023/06/11 11:07:44;;;;;;;4.53;4.13;;;;;;;27.25;37.50;97998.72;5054697;28;20206;-73
2023/06/11 11:10:12;;;;;;;6.25;4.15;;;;;;;27.20;37.33;97990.72;5054390;28;20572;-72
2023/06/11 11:12:49;;;;;;;4.55;4.18;;;;;;;27.09;37.33;97992.19;5054398;28;20229;-74
2023/06/11 11:15:16;;;;;;;5.35;4.32;;;;;;;26.86;36.23;97999.78;5054747;28;20209;-73
2023/06/11 11:17:44;;;;;;;5.03;4.47;;;;;;;26.79;37.69;98001.41;5054650;28;20209;-73
2023/06/11 11:20:17;;;;;;;5.45;3.65;;;;;;;27.15;38.82;97993.59;5054636;28;20205;-73
2023/06/11 11:22:48;;;;;;;5.07;4.03;;;;;;;27.01;36.68;97991.06;5054111;28;20196;-73
2023/06/11 11:25:15;;;;;;;4.00;3.60;;;;;;;26.94;35.35;97992.69;5054373;28;20194;-72
2023/06/11 11:27:43;;;;;;;4.10;3.80;;;;;;;27.00;35.13;97997.66;5054348;28;20209;-72
2023/06/11 11:30:10;;;;;;;4.63;4.22;;;;;;;26.88;35.86;97977.63;5054952;28;20212;-73
2023/06/11 11:32:37;;;;;;;4.22;3.92;;;;;;;27.07;35.95;97986.22;5053248;28;20225;-72
2023/06/11 11:35:05;;;;;;;5.00;3.97;;;;;;;27.08;35.46;97987.81;5054319;28;20217;-72